Main page
METAR-TAF:

METAR-TAF

Airports :

RAF Marham

Marham, England

latitude: 52-39N, longitude: 000-34E, elevation: 23 m

Current weather observation

The report was made 18 minutes ago, at 19:50 UTC
Wind 6 kt from the Southwest
Temperature 5°C
Humidity 87%
Pressure 1019 hPa
Visibility 10 km or more
Scattered clouds at a height of 4500 ft

METAR: EGYM 291950Z 23006KT 9999 SCT045 05/03 Q1019 RMK BLU

Time: 20:08 (20:08 UTC)

Forecast

The report was made 5 hours and 5 minutes ago, at 15:03 UTC
Forecast valid from 29 at 15 UTC to 29 at 24 UTC
Wind 12 kt from the West/Southwest
Visibility 10 km or more
Few clouds at a height of 1800 ft
Scattered clouds at a height of 3000 ft
Temporary
from 29 at 15 UTC to 29 at 24 UTC
Scattered clouds at a height of 1800 ft
Probability 30% :
Temporary
from 29 at 20 UTC to 29 at 24 UTC
Wind 15 kt from the West/Southwest with gusts up to 25 kt

TAF: EGYM 291503Z 2915/2924 24012KT 9999 FEW018 SCT030 TEMPO 2915/2924 SCT018 PROB30 TEMPO 2920/2924 24015G25KT

Weather observations and forecasts of more than 4000 airports (METAR and TAF reports).

The available stations are represented by yellow and red dots on the map.

Hover mouse over dot to see the name of the station.

Then click to see weather observations and forecasts.

To change the map : click on the green buttons with a black cross to zoom in, on the green button with a dash to zoom out, or on the green arrows for adjacent maps.


METAR-TAF: